Terminal Aerodrome Forecast
Issued by NWS

Home | Current Version | Previous Version | Text Only | Print | Product List | Glossary On
Versions: 1 2 3 4 5 6 7 8 9 10 11 12
000
FTUS46 KHNX 020530
TAFMCE
TAF
KMCE 020530Z 0206/0306 34012G20KT P6SM FEW200
     FM021000 34007KT P6SM FEW200
     FM022000 34012KT P6SM SKC=

USA.gov is the U.S. government's official web portal to all federal, state and local government web resources and services.